weather station
Area: 3964 km2
The highest point: Čertův mlýn (1206 m.s.l.)
Total stations: 30
Stations online: 29
Stations offline: 1
Current weather
0°C

Meteorological map - weather stations in Zlínský

. The meteorological maps show weather information from WARIO weather stations

Weather stations Zlínský

 UpdatesNameStatusTemperatureHumidityWind speedWind direction
5.12.2021 21:07Valašské Meziříčí - Brňov-0.9 °C95.9 %0.0 m/s N
5.12.2021 21:07Bystřička-0.7 °C98.1 %0.0 m/s NE
22.11.2021 07:35Dolní Bečva3.1 °C88.9 %0.8 m/s SE
5.12.2021 21:07Podhradní Lhota-0.9 °C90.6 %0.0 m/s NW
5.12.2021 21:07Zubří-0.6 °C93.6 %0.0 m/s SW
5.12.2021 21:07Dolní Bečva-0.4 °C93.3 %0.0 m/s N
5.12.2021 21:07Halenkov-1.3 °C95.8 %0.8 m/s E
5.12.2021 21:07Hošťálková-0.9 °C100.0 %0.0 m/s SE
5.12.2021 21:07Kroměříž - Vážany-0.7 °C100.0 %1.4 m/s W
5.12.2021 21:07Kroměříž-0.8 °C98.5 %1.0 m/s N
5.12.2021 21:07Kroměříž-0.8 °C98.6 %1.0 m/s NW
5.12.2021 21:07Lhota u Vsetína-1.1 °C100.0 %0.0 m/s S
5.12.2021 21:07Liptál-1.3 °C100.0 %0.0 m/s NE
5.12.2021 21:07Luhačovice-1.6 °C98.3 %0.7 m/s NW
5.12.2021 21:07Holešov-1.3 °C100.0 %1.6 m/s NW
5.12.2021 21:07Vsetín-0.4 °C92.7 %0.0 m/s W
5.12.2021 21:07Vigantice0.6 °C98.4 %0.0 m/s E
5.12.2021 21:07Horní Lideč-1.2 °C90.4 %0.0 m/s E
5.12.2021 21:07Zlín1.3 °C98.6 %0.0 m/s SW
5.12.2021 21:07Uherské Hradiště-1.0 °C100.0 %0.8 m/s NW
5.12.2021 21:07Poličná8.2 °C55.5 %0.0 m/s E
5.12.2021 21:07Zlín0.1 °C88.9 %0.0 m/s NW
5.12.2021 21:07Prusinovice0.7 °C98.0 %1.0 m/s NW
5.12.2021 21:07Rožnov pod Radhoštěm-1.1 °C92.7 %0.0 m/s NW
5.12.2021 21:07Rajnochovice-2.1 °C100.0 %0.0 m/s NE
5.12.2021 21:07Růžďka-0.6 °C94.1 %0.0 m/s S
5.12.2021 21:07Svatý Hostýn-1.8 °C100.0 %1.4 m/s E
5.12.2021 21:07Valašské Meziříčí-0.3 °C97.6 %0.0 m/s E
5.12.2021 21:07Vidče-1.4 °C97.2 %0.0 m/s N
5.12.2021 21:07Zlín-0.6 °C89.9 %0.0 m/s NW
Email notifications
Enter your email address to subscribe to notifications about news at warioweather.com. Your email address will not be used for any purpose other than sending these emails and will not be provided to any third party. The subscription can be ended at any time.
All data are only indicative. The portal administrator has no responsibility for potentially incorrect data and related consequences. Publishing or further sharing of content from www.warioweather.com is only allowed with written consent from WANET s.r.o.